createdAt,value
2022-12-15T00:02:21.655Z,55.90
2022-12-15T00:05:07.762Z,55.80
2022-12-15T00:07:54.059Z,55.90
2022-12-15T00:10:39.324Z,55.90
2022-12-15T00:13:32.775Z,55.90
2022-12-15T00:16:18.681Z,56.00
2022-12-15T00:19:04.767Z,56.00
2022-12-15T00:21:50.118Z,56.00
2022-12-15T00:24:35.945Z,56.00
2022-12-15T00:27:21.551Z,55.90
2022-12-15T00:30:06.823Z,55.90
2022-12-15T00:32:52.424Z,56.00
2022-12-15T00:35:37.716Z,56.10
2022-12-15T00:38:31.933Z,56.10
2022-12-15T00:40:59.747Z,56.20
2022-12-15T00:43:35.252Z,56.10
2022-12-15T00:46:21.793Z,56.10
2022-12-15T00:48:48.952Z,56.10
2022-12-15T00:51:16.504Z,56.00
2022-12-15T00:54:02.341Z,56.10
2022-12-15T00:56:47.702Z,56.10
2022-12-15T00:59:34.111Z,56.10
2022-12-15T01:02:20.828Z,56.10
2022-12-15T01:05:06.577Z,56.10
2022-12-15T01:07:51.933Z,56.10
2022-12-15T01:10:38.837Z,56.00
2022-12-15T01:13:24.446Z,56.10
2022-12-15T01:16:10.089Z,56.20
2022-12-15T01:18:55.572Z,56.10
2022-12-15T01:21:25.060Z,56.00
2022-12-15T01:23:52.669Z,56.10
2022-12-15T01:26:19.798Z,56.10
2022-12-15T01:28:46.670Z,56.10
2022-12-15T01:31:13.712Z,56.20
2022-12-15T01:33:42.660Z,56.10
2022-12-15T01:36:10.678Z,56.20
2022-12-15T01:38:37.872Z,56.20
2022-12-15T01:41:09.561Z,56.20
2022-12-15T01:43:38.656Z,56.20
2022-12-15T01:46:05.580Z,56.10
2022-12-15T01:48:46.931Z,56.10
2022-12-15T01:51:19.790Z,56.10
2022-12-15T01:53:59.060Z,56.10
2022-12-15T01:56:31.223Z,56.20
2022-12-15T01:59:04.876Z,56.10
2022-12-15T02:01:31.929Z,56.10
2022-12-15T02:03:58.964Z,56.00
2022-12-15T02:06:28.201Z,56.10
2022-12-15T02:08:57.140Z,56.20
2022-12-15T02:11:35.900Z,56.10
2022-12-15T02:14:05.382Z,56.10
2022-12-15T02:16:39.064Z,56.10
2022-12-15T02:19:27.035Z,56.20
2022-12-15T02:22:22.661Z,56.20
2022-12-15T02:24:52.182Z,56.30
2022-12-15T02:27:47.478Z,56.20
2022-12-15T02:30:33.033Z,56.30
2022-12-15T02:33:27.423Z,56.30
2022-12-15T02:36:04.438Z,56.30
2022-12-15T02:38:35.174Z,56.30
2022-12-15T02:41:04.627Z,56.30
2022-12-15T02:43:36.252Z,56.30
2022-12-15T02:46:27.071Z,56.30
2022-12-15T02:49:03.211Z,56.40
2022-12-15T02:51:44.681Z,56.40
2022-12-15T02:54:24.914Z,56.50
2022-12-15T02:56:54.741Z,56.50
2022-12-15T02:59:44.184Z,56.50
2022-12-15T03:02:13.280Z,56.50
2022-12-15T03:04:42.605Z,56.50
2022-12-15T03:07:10.653Z,56.50
2022-12-15T03:09:37.744Z,57.10
2022-12-15T03:12:05.243Z,56.40
2022-12-15T03:14:32.771Z,56.40
2022-12-15T03:16:59.651Z,56.40
2022-12-15T03:19:26.560Z,56.40
2022-12-15T03:21:53.406Z,56.40
2022-12-15T03:24:20.220Z,56.50
2022-12-15T03:26:50.089Z,56.50
2022-12-15T03:29:18.038Z,56.60
2022-12-15T03:31:45.459Z,56.60
2022-12-15T03:34:12.327Z,56.50
2022-12-15T03:36:39.251Z,56.50
2022-12-15T03:39:06.668Z,56.50
2022-12-15T03:41:33.439Z,56.50
2022-12-15T03:44:00.723Z,56.40
2022-12-15T03:46:27.540Z,56.40
2022-12-15T03:48:54.346Z,56.30
2022-12-15T03:51:21.627Z,56.20
2022-12-15T03:53:49.327Z,56.30
2022-12-15T03:56:17.335Z,56.30
2022-12-15T03:58:44.330Z,56.30
2022-12-15T04:01:28.845Z,56.20
2022-12-15T04:04:00.487Z,56.20
2022-12-15T04:06:29.275Z,56.20
2022-12-15T04:08:56.407Z,56.20
2022-12-15T04:11:23.251Z,56.10
2022-12-15T04:13:50.105Z,56.10
2022-12-15T04:16:20.141Z,56.10
2022-12-15T04:19:08.258Z,56.10
2022-12-15T04:21:35.057Z,56.20
2022-12-15T04:24:20.702Z,56.10
2022-12-15T04:27:05.894Z,56.10
2022-12-15T04:29:51.249Z,56.70
2022-12-15T04:32:36.526Z,56.00
2022-12-15T04:35:22.139Z,56.00
2022-12-15T04:38:07.475Z,55.90
2022-12-15T04:40:53.762Z,56.00
2022-12-15T04:43:39.491Z,56.10
2022-12-15T04:46:25.019Z,56.10
2022-12-15T04:49:10.596Z,56.20
2022-12-15T04:51:55.940Z,56.30
2022-12-15T04:54:41.301Z,56.60
2022-12-15T04:57:26.526Z,56.40
2022-12-15T05:00:12.073Z,56.40
2022-12-15T05:02:57.431Z,56.30
2022-12-15T05:05:42.700Z,56.40
2022-12-15T05:08:27.927Z,56.40
2022-12-15T05:11:13.160Z,56.40
2022-12-15T05:13:58.867Z,56.40
2022-12-15T05:16:44.264Z,56.40
2022-12-15T05:19:29.564Z,56.50
2022-12-15T05:22:14.906Z,56.40
2022-12-15T05:25:00.522Z,56.50
2022-12-15T05:27:45.950Z,56.50
2022-12-15T05:30:31.305Z,56.50
2022-12-15T05:32:58.176Z,56.50
2022-12-15T05:35:25.034Z,56.50
2022-12-15T05:37:51.892Z,56.50
2022-12-15T05:40:18.690Z,56.50
2022-12-15T05:42:50.114Z,56.50
2022-12-15T05:45:17.249Z,56.40
2022-12-15T05:47:44.010Z,57.00
2022-12-15T05:50:10.821Z,56.30
2022-12-15T05:52:37.603Z,56.20
2022-12-15T05:55:05.866Z,56.20
2022-12-15T05:57:32.648Z,56.20
2022-12-15T05:59:59.423Z,56.30
2022-12-15T06:02:28.564Z,56.80
2022-12-15T06:04:55.539Z,56.20
2022-12-15T06:07:22.737Z,56.20
2022-12-15T06:09:49.541Z,56.20
2022-12-15T06:12:16.659Z,56.20
2022-12-15T06:14:43.419Z,56.20
2022-12-15T06:17:10.320Z,56.20
2022-12-15T06:19:37.108Z,56.30
2022-12-15T06:22:04.159Z,56.30
2022-12-15T06:24:31.079Z,56.30
2022-12-15T06:26:57.919Z,56.30
2022-12-15T06:29:24.842Z,56.20
2022-12-15T06:31:51.793Z,56.30
2022-12-15T06:34:18.701Z,56.30
2022-12-15T06:36:45.559Z,56.30
2022-12-15T06:39:15.256Z,56.30
2022-12-15T06:41:43.148Z,56.30
2022-12-15T06:44:14.643Z,56.30
2022-12-15T06:46:41.838Z,56.30
2022-12-15T06:49:09.245Z,56.20
2022-12-15T06:51:36.659Z,56.20
2022-12-15T06:54:03.614Z,56.30
2022-12-15T06:56:35.994Z,56.20
2022-12-15T06:59:04.744Z,56.20
2022-12-15T07:01:32.410Z,56.10
2022-12-15T07:04:01.476Z,56.10
2022-12-15T07:06:31.918Z,56.20
2022-12-15T07:08:59.062Z,56.20
2022-12-15T07:11:25.964Z,56.20
2022-12-15T07:13:53.786Z,56.30
2022-12-15T07:16:22.390Z,56.20
2022-12-15T07:18:49.948Z,56.10
2022-12-15T07:21:17.511Z,56.20
2022-12-15T07:24:00.922Z,56.20
2022-12-15T07:26:28.539Z,56.10
2022-12-15T07:28:56.074Z,56.10
2022-12-15T07:31:23.363Z,56.00
2022-12-15T07:33:52.261Z,56.00
2022-12-15T07:36:19.638Z,56.00
2022-12-15T07:38:50.604Z,55.90
2022-12-15T07:41:19.544Z,55.90
2022-12-15T07:43:47.770Z,56.00
2022-12-15T07:46:15.194Z,56.00
2022-12-15T07:48:42.128Z,56.00
2022-12-15T07:51:17.221Z,56.10
2022-12-15T07:53:50.203Z,56.20
2022-12-15T07:56:20.819Z,56.30
2022-12-15T07:58:48.125Z,56.30
2022-12-15T08:01:15.885Z,56.10
2022-12-15T08:03:43.332Z,56.80
2022-12-15T08:06:13.069Z,56.10
2022-12-15T08:08:40.671Z,56.20
2022-12-15T08:11:13.568Z,56.10
2022-12-15T08:16:29.245Z,56.00
2022-12-15T08:18:57.274Z,55.90
2022-12-15T08:21:24.645Z,56.00
2022-12-15T08:23:51.481Z,55.90
2022-12-15T08:26:20.686Z,55.90
2022-12-15T08:28:50.548Z,55.90
2022-12-15T08:31:20.041Z,55.90
2022-12-15T08:33:47.461Z,56.10
2022-12-15T08:36:16.649Z,56.10
2022-12-15T08:38:45.595Z,56.20
2022-12-15T08:41:23.401Z,56.20
2022-12-15T08:43:51.317Z,56.30
2022-12-15T08:46:20.935Z,56.40
2022-12-15T08:48:48.831Z,56.30
2022-12-15T08:51:16.382Z,56.40
2022-12-15T08:53:43.552Z,56.50
2022-12-15T08:56:15.992Z,56.50
2022-12-15T08:58:43.325Z,56.60
2022-12-15T09:01:19.013Z,56.60
2022-12-15T09:03:50.504Z,56.80
2022-12-15T09:06:20.633Z,56.90
2022-12-15T09:08:48.551Z,56.90
2022-12-15T09:11:17.342Z,57.00
2022-12-15T09:13:44.601Z,57.00
2022-12-15T09:16:14.826Z,57.20
2022-12-15T09:18:47.043Z,57.40
2022-12-15T09:21:14.513Z,57.50
2022-12-15T09:23:42.463Z,57.60
2022-12-15T09:26:12.910Z,57.60
2022-12-15T09:28:40.029Z,57.70
2022-12-15T09:31:15.174Z,57.80
2022-12-15T09:33:43.285Z,57.80
2022-12-15T09:36:13.213Z,58.00
2022-12-15T09:38:42.013Z,58.10
2022-12-15T09:41:09.519Z,58.20
2022-12-15T09:43:46.562Z,58.40
2022-12-15T09:46:26.591Z,58.50
2022-12-15T09:48:55.882Z,58.60
2022-12-15T09:51:34.717Z,58.60
2022-12-15T09:54:02.150Z,58.60
2022-12-15T09:56:49.800Z,58.50
2022-12-15T09:59:25.619Z,58.70
2022-12-15T10:02:21.391Z,58.60
2022-12-15T10:05:00.117Z,58.60
2022-12-15T10:07:42.109Z,58.70
2022-12-15T10:10:24.213Z,58.80
2022-12-15T10:13:02.062Z,58.80
2022-12-15T10:16:07.524Z,58.80
2022-12-15T10:18:57.574Z,59.00
2022-12-15T10:21:29.095Z,59.00
2022-12-15T10:27:51.959Z,59.00
2022-12-15T10:30:19.344Z,58.90
2022-12-15T10:33:03.593Z,58.80
2022-12-15T10:35:36.018Z,58.90
2022-12-15T10:38:05.999Z,59.00
2022-12-15T10:40:50.484Z,59.20
2022-12-15T10:43:25.832Z,59.10
2022-12-15T10:46:20.722Z,59.70
2022-12-15T10:49:21.235Z,59.30
2022-12-15T10:51:57.435Z,59.40
2022-12-15T10:54:32.337Z,59.50
2022-12-15T10:57:03.423Z,60.30
2022-12-15T10:59:37.312Z,59.80
2022-12-15T11:02:25.744Z,60.00
2022-12-15T11:05:16.123Z,60.10
2022-12-15T11:07:46.243Z,60.30
2022-12-15T11:10:22.521Z,60.30
2022-12-15T11:13:16.687Z,60.30
2022-12-15T11:15:51.803Z,60.30
2022-12-15T11:18:39.410Z,60.40
2022-12-15T11:21:17.280Z,60.30
2022-12-15T11:24:13.646Z,60.30
2022-12-15T11:26:40.464Z,60.30
2022-12-15T11:29:16.627Z,60.00
2022-12-15T11:31:45.329Z,60.10
2022-12-15T11:34:18.318Z,60.10
2022-12-15T11:36:48.447Z,60.10
2022-12-15T11:39:18.708Z,60.00
2022-12-15T11:41:53.979Z,60.00
2022-12-15T11:44:39.546Z,59.90
2022-12-15T11:47:31.460Z,59.90
2022-12-15T11:50:26.355Z,59.80
2022-12-15T11:53:25.722Z,59.80
2022-12-15T11:56:07.018Z,59.70
2022-12-15T11:59:15.279Z,59.70
2022-12-15T12:02:03.897Z,59.60
2022-12-15T12:04:50.892Z,59.30
2022-12-15T12:07:23.741Z,59.40
2022-12-15T12:10:14.375Z,59.40
2022-12-15T12:12:52.265Z,59.20
2022-12-15T12:15:30.071Z,59.20
2022-12-15T12:18:07.560Z,58.90
2022-12-15T12:20:42.313Z,58.70
2022-12-15T12:23:29.414Z,58.80
2022-12-15T12:26:15.668Z,58.70
2022-12-15T12:28:50.217Z,58.60
2022-12-15T12:31:52.351Z,58.60
2022-12-15T12:34:45.578Z,58.40
2022-12-15T12:37:34.532Z,58.40
2022-12-15T12:40:07.523Z,58.30
2022-12-15T12:42:42.398Z,58.30
2022-12-15T12:45:13.640Z,58.20
2022-12-15T12:47:44.824Z,58.10
2022-12-15T12:50:20.203Z,58.00
2022-12-15T12:52:57.358Z,57.80
2022-12-15T12:55:26.286Z,57.80
2022-12-15T12:57:54.525Z,57.70
2022-12-15T13:00:29.807Z,57.70
2022-12-15T13:03:17.274Z,57.80
2022-12-15T13:05:46.318Z,57.50
2022-12-15T13:08:15.742Z,57.60
2022-12-15T13:10:45.318Z,57.60
2022-12-15T13:13:32.919Z,57.70
2022-12-15T13:16:12.031Z,57.30
2022-12-15T13:19:03.645Z,57.40
2022-12-15T13:21:45.717Z,57.20
2022-12-15T13:24:56.190Z,57.30
2022-12-15T13:27:24.099Z,56.90
2022-12-15T13:30:07.334Z,57.00
2022-12-15T13:32:36.955Z,57.10
2022-12-15T13:35:32.162Z,57.50
2022-12-15T13:38:03.005Z,57.70
2022-12-15T13:40:51.901Z,57.80
2022-12-15T13:43:27.155Z,57.70
2022-12-15T13:45:59.201Z,57.40
2022-12-15T13:48:56.497Z,57.30
2022-12-15T13:51:26.361Z,57.20
2022-12-15T13:54:18.076Z,57.00
2022-12-15T13:56:50.847Z,56.80
2022-12-15T13:59:25.753Z,56.90
2022-12-15T14:01:53.745Z,56.60
2022-12-15T14:04:21.902Z,56.40
2022-12-15T14:07:01.617Z,56.10
2022-12-15T14:09:35.506Z,56.20
2022-12-15T14:12:05.019Z,56.10
2022-12-15T14:14:37.069Z,55.70
2022-12-15T14:17:09.743Z,55.70
2022-12-15T14:19:42.126Z,55.50
2022-12-15T14:22:29.065Z,55.40
2022-12-15T14:25:18.477Z,55.00
2022-12-15T14:27:45.512Z,54.80
2022-12-15T14:30:29.603Z,54.80
2022-12-15T14:33:07.098Z,54.80
2022-12-15T14:35:49.610Z,54.80
2022-12-15T14:38:44.912Z,54.80
2022-12-15T14:41:22.195Z,54.90
2022-12-15T14:44:36.252Z,55.00
2022-12-15T14:46:38.450Z,55.00
2022-12-15T14:49:07.556Z,55.20
2022-12-15T14:51:43.424Z,55.20
2022-12-15T14:54:32.024Z,55.40
2022-12-15T14:57:21.042Z,55.40
2022-12-15T14:59:49.450Z,55.50
2022-12-15T15:02:26.691Z,55.60
2022-12-15T15:03:09.452Z,58.90
2022-12-15T15:05:05.607Z,55.70
2022-12-15T15:07:33.773Z,55.80
2022-12-15T15:10:02.119Z,55.80
2022-12-15T15:12:45.799Z,55.90
2022-12-15T15:15:19.805Z,55.90
2022-12-15T15:17:52.870Z,55.90
2022-12-15T15:20:27.787Z,55.90
2022-12-15T15:23:12.572Z,56.00
2022-12-15T15:25:41.554Z,56.00
2022-12-15T15:28:18.041Z,56.10
2022-12-15T15:30:50.893Z,56.10
2022-12-15T15:33:19.404Z,56.10
2022-12-15T15:35:53.254Z,56.10
2022-12-15T15:38:23.580Z,56.20
2022-12-15T15:40:56.024Z,56.20
2022-12-15T15:43:24.424Z,56.70
2022-12-15T15:46:08.655Z,56.40
2022-12-15T15:49:09.810Z,56.40
2022-12-15T15:51:37.763Z,56.60
2022-12-15T15:54:13.995Z,56.60
2022-12-15T15:56:41.567Z,56.70
2022-12-15T15:59:28.952Z,57.40
2022-12-15T16:01:56.380Z,56.80
2022-12-15T16:04:24.249Z,57.00
2022-12-15T16:06:52.256Z,57.10
2022-12-15T16:09:19.357Z,57.10
2022-12-15T16:11:46.996Z,57.10
2022-12-15T16:14:16.098Z,57.10
2022-12-15T16:16:44.120Z,57.20
2022-12-15T16:19:12.319Z,57.30
2022-12-15T16:21:40.896Z,57.40
2022-12-15T16:24:17.668Z,57.50
2022-12-15T16:26:50.525Z,57.60
2022-12-15T16:29:20.373Z,57.60
2022-12-15T16:31:47.633Z,57.60
2022-12-15T16:34:20.468Z,57.70
2022-12-15T16:36:47.708Z,57.70
2022-12-15T16:39:25.604Z,57.60
2022-12-15T16:41:54.313Z,57.60
2022-12-15T16:44:22.370Z,57.70
2022-12-15T16:46:49.279Z,57.60
2022-12-15T16:49:16.224Z,57.70
2022-12-15T16:51:46.782Z,57.70
2022-12-15T16:54:26.310Z,57.70
2022-12-15T16:56:58.234Z,57.80
2022-12-15T16:59:33.872Z,57.60
2022-12-15T17:02:02.309Z,57.60
2022-12-15T17:04:29.340Z,57.70
2022-12-15T17:06:56.193Z,57.60
2022-12-15T17:09:25.555Z,57.70
2022-12-15T17:11:52.616Z,57.70
2022-12-15T17:14:19.505Z,57.70
2022-12-15T17:16:46.453Z,57.70
2022-12-15T17:19:19.211Z,57.70
2022-12-15T17:21:50.748Z,57.90
2022-12-15T17:24:20.313Z,57.90
2022-12-15T17:26:47.882Z,57.80
2022-12-15T17:29:21.038Z,57.80
2022-12-15T17:31:48.009Z,57.90
2022-12-15T17:34:35.188Z,58.00
2022-12-15T17:37:05.499Z,57.90
2022-12-15T17:39:35.353Z,58.00
2022-12-15T17:42:03.052Z,58.10
2022-12-15T17:44:36.156Z,58.20
2022-12-15T17:47:06.040Z,58.20
2022-12-15T17:49:35.983Z,58.20
2022-12-15T17:52:11.559Z,58.20
2022-12-15T17:54:38.558Z,58.30
2022-12-15T17:57:05.420Z,58.30
2022-12-15T17:59:32.278Z,58.30
2022-12-15T18:01:59.231Z,58.30
2022-12-15T18:04:26.409Z,58.30
2022-12-15T18:06:58.087Z,58.20
2022-12-15T18:09:28.642Z,58.30
2022-12-15T18:11:55.619Z,58.20
2022-12-15T18:14:23.017Z,58.20
2022-12-15T18:16:50.146Z,58.20
2022-12-15T18:19:16.998Z,58.10
2022-12-15T18:21:43.962Z,58.00
2022-12-15T18:24:13.572Z,58.00
2022-12-15T18:26:40.384Z,58.00
2022-12-15T18:29:17.948Z,57.80
2022-12-15T18:31:47.211Z,57.80
2022-12-15T18:34:17.511Z,57.80
2022-12-15T18:36:44.956Z,57.90
2022-12-15T18:39:23.785Z,57.70
2022-12-15T18:41:52.554Z,58.30
2022-12-15T18:44:28.746Z,57.60
2022-12-15T18:46:55.735Z,57.70
2022-12-15T18:49:23.719Z,57.60
2022-12-15T18:51:50.841Z,57.70
2022-12-15T18:54:20.866Z,57.60
2022-12-15T18:56:48.003Z,57.70
2022-12-15T18:59:16.486Z,57.70
2022-12-15T19:01:48.153Z,57.60
2022-12-15T19:04:15.569Z,57.60
2022-12-15T19:06:43.041Z,57.60
2022-12-15T19:09:22.120Z,57.60
2022-12-15T19:12:08.955Z,57.50
2022-12-15T19:14:41.376Z,57.50
2022-12-15T19:17:31.823Z,57.60
2022-12-15T19:20:17.517Z,57.60
2022-12-15T19:22:46.255Z,57.60
2022-12-15T19:25:26.369Z,57.50
2022-12-15T19:28:01.509Z,57.40
2022-12-15T19:30:41.617Z,57.50
2022-12-15T19:33:10.047Z,57.50
2022-12-15T19:35:38.194Z,57.40
2022-12-15T19:38:05.588Z,57.40
2022-12-15T19:40:34.330Z,57.40
2022-12-15T19:43:02.343Z,57.50
2022-12-15T19:45:31.329Z,57.50
2022-12-15T19:47:59.039Z,57.50
2022-12-15T19:50:33.455Z,57.40
2022-12-15T19:53:03.815Z,57.40
2022-12-15T19:55:33.075Z,57.30
2022-12-15T19:58:01.022Z,57.20
2022-12-15T20:00:28.076Z,57.20
2022-12-15T20:02:55.925Z,57.10
2022-12-15T20:05:25.130Z,57.00
2022-12-15T20:07:53.580Z,57.00
2022-12-15T20:10:31.874Z,57.00
2022-12-15T20:13:00.895Z,57.00
2022-12-15T20:15:27.873Z,57.00
2022-12-15T20:17:57.251Z,57.10
2022-12-15T20:20:26.965Z,57.00
2022-12-15T20:22:56.588Z,57.10
2022-12-15T20:25:32.320Z,57.10
2022-12-15T20:28:02.364Z,57.20
2022-12-15T20:30:33.204Z,57.10
2022-12-15T20:33:02.405Z,57.20
2022-12-15T20:35:33.069Z,57.10
2022-12-15T20:38:02.647Z,57.00
2022-12-15T20:40:30.473Z,56.80
2022-12-15T20:42:57.911Z,56.80
2022-12-15T20:45:26.868Z,56.70
2022-12-15T20:47:55.891Z,56.70
2022-12-15T20:50:32.836Z,56.70
2022-12-15T20:52:59.783Z,56.70
2022-12-15T20:55:26.811Z,56.70
2022-12-15T20:57:53.881Z,56.50
2022-12-15T21:00:21.889Z,56.60
2022-12-15T21:02:49.084Z,56.70
2022-12-15T21:05:24.366Z,56.70
2022-12-15T21:07:51.629Z,56.60
2022-12-15T21:10:20.530Z,56.60
2022-12-15T21:12:49.550Z,56.70
2022-12-15T21:15:22.458Z,56.80
2022-12-15T21:18:08.856Z,56.70
2022-12-15T21:20:41.803Z,56.60
2022-12-15T21:23:22.596Z,56.70
2022-12-15T21:25:49.946Z,56.80
2022-12-15T21:28:17.709Z,56.80
2022-12-15T21:30:44.962Z,56.80
2022-12-15T21:33:12.025Z,56.90
2022-12-15T21:35:40.422Z,56.80
2022-12-15T21:38:20.191Z,56.80
2022-12-15T21:40:46.985Z,56.80
2022-12-15T21:43:13.831Z,56.80
2022-12-15T21:45:40.688Z,56.80
2022-12-15T21:48:27.511Z,56.80
2022-12-15T21:50:54.316Z,56.90
2022-12-15T21:53:21.613Z,56.90
2022-12-15T21:55:48.439Z,56.80
2022-12-15T21:58:24.352Z,56.80
2022-12-15T22:00:51.298Z,56.90
2022-12-15T22:03:21.365Z,56.80
2022-12-15T22:05:48.250Z,56.80
2022-12-15T22:08:22.525Z,56.90
2022-12-15T22:10:52.036Z,57.00
2022-12-15T22:13:23.240Z,57.00
2022-12-15T22:15:54.660Z,57.10
2022-12-15T22:18:22.504Z,57.20
2022-12-15T22:20:50.759Z,57.20
2022-12-15T22:23:18.596Z,57.30
2022-12-15T22:25:47.721Z,57.30
2022-12-15T22:28:21.801Z,57.40
2022-12-15T22:30:52.745Z,57.30
2022-12-15T22:33:24.623Z,57.30
2022-12-15T22:35:53.477Z,57.20
2022-12-15T22:38:23.756Z,57.30
2022-12-15T22:40:53.639Z,57.30
2022-12-15T22:43:31.551Z,57.20
2022-12-15T22:45:59.758Z,57.40
2022-12-15T22:48:31.904Z,57.30
2022-12-15T22:50:59.320Z,57.20
2022-12-15T22:53:29.386Z,57.20
2022-12-15T22:55:56.293Z,57.10
2022-12-15T22:58:33.330Z,57.70
2022-12-15T23:01:01.278Z,57.10
2022-12-15T23:03:29.497Z,56.90
2022-12-15T23:05:57.214Z,57.10
2022-12-15T23:08:24.025Z,57.10
2022-12-15T23:11:09.463Z,57.10
2022-12-15T23:13:36.382Z,57.20
2022-12-15T23:16:23.055Z,57.20
2022-12-15T23:18:55.198Z,57.30
2022-12-15T23:21:23.749Z,57.40
2022-12-15T23:23:50.874Z,57.50
2022-12-15T23:26:20.747Z,57.50
2022-12-15T23:28:47.884Z,57.60
2022-12-15T23:31:14.940Z,57.60
2022-12-15T23:33:41.878Z,57.60
2022-12-15T23:36:09.926Z,57.80
2022-12-15T23:38:36.727Z,57.90
2022-12-15T23:41:03.738Z,57.90
2022-12-15T23:43:33.198Z,58.10
2022-12-15T23:46:07.294Z,58.20
2022-12-15T23:48:38.326Z,58.30
2022-12-15T23:51:09.550Z,58.40
2022-12-15T23:53:37.059Z,58.60
2022-12-15T23:56:18.658Z,58.60
2022-12-15T23:58:46.869Z,58.80
